createdAt,value
2022-11-29T00:01:41.180Z,4.03
2022-11-29T00:16:43.232Z,4.13
2022-11-29T00:31:44.844Z,4.35
2022-11-29T00:46:46.459Z,4.96
2022-11-29T01:01:47.972Z,4.62
2022-11-29T01:16:49.480Z,4.68
2022-11-29T01:31:51.014Z,4.30
2022-11-29T01:46:53.654Z,4.06
2022-11-29T02:02:01.066Z,3.89
2022-11-29T02:17:11.867Z,3.73
2022-11-29T02:32:25.490Z,4.11
2022-11-29T02:47:56.547Z,3.98
2022-11-29T03:02:58.035Z,3.92
2022-11-29T03:18:10.037Z,5.19
2022-11-29T03:33:14.612Z,5.46
2022-11-29T03:48:16.133Z,4.38
2022-11-29T04:03:40.313Z,4.59
2022-11-29T04:19:00.420Z,4.58
2022-11-29T04:34:07.759Z,4.83
2022-11-29T04:49:27.721Z,4.29
2022-11-29T05:04:32.377Z,4.57
2022-11-29T05:19:47.094Z,4.94
2022-11-29T05:34:57.983Z,5.16
2022-11-29T05:50:14.209Z,4.58
2022-11-29T06:05:28.779Z,4.79
2022-11-29T06:20:36.311Z,4.52
2022-11-29T06:35:45.928Z,4.79
2022-11-29T06:50:59.105Z,5.21
2022-11-29T07:06:04.534Z,5.25
2022-11-29T07:21:12.576Z,4.84
2022-11-29T07:36:18.523Z,5.29
2022-11-29T07:51:20.041Z,5.36
2022-11-29T08:06:25.406Z,5.29
2022-11-29T08:21:26.917Z,5.50
2022-11-29T08:36:28.499Z,5.94
2022-11-29T08:51:29.976Z,5.85
2022-11-29T09:06:37.515Z,5.98
2022-11-29T09:21:39.038Z,6.25
2022-11-29T09:36:40.701Z,5.93
2022-11-29T09:51:48.798Z,5.89
2022-11-29T10:06:53.439Z,6.03
2022-11-29T10:21:59.888Z,6.52
2022-11-29T10:37:02.823Z,6.32
2022-11-29T10:52:05.366Z,6.60
2022-11-29T11:07:06.951Z,6.72
2022-11-29T11:22:19.072Z,6.84
2022-11-29T11:37:20.558Z,7.10
2022-11-29T11:52:26.388Z,7.32
2022-11-29T12:08:06.082Z,6.93
2022-11-29T12:23:14.188Z,6.23
2022-11-29T12:38:31.565Z,6.73
2022-11-29T12:53:42.030Z,6.81
2022-11-29T13:08:55.904Z,6.44
2022-11-29T13:24:10.897Z,6.31
2022-11-29T13:39:27.532Z,5.97
2022-11-29T13:54:30.908Z,5.80
2022-11-29T14:09:35.178Z,5.80
2022-11-29T14:24:36.869Z,5.76
2022-11-29T14:39:41.373Z,5.49
2022-11-29T14:54:54.940Z,5.37
2022-11-29T15:09:59.677Z,5.43
2022-11-29T15:25:03.191Z,5.26
2022-11-29T15:40:04.794Z,5.21
2022-11-29T15:55:10.327Z,5.30
2022-11-29T16:10:14.235Z,5.54
2022-11-29T16:25:17.466Z,5.72
2022-11-29T16:40:26.560Z,5.55
2022-11-29T16:55:28.108Z,5.48
2022-11-29T17:10:30.082Z,5.85
2022-11-29T17:25:31.620Z,6.62
2022-11-29T17:40:33.156Z,6.69
2022-11-29T17:55:34.636Z,5.79
2022-11-29T18:10:36.332Z,5.82
2022-11-29T18:25:39.681Z,5.43
2022-11-29T18:40:42.486Z,5.41
2022-11-29T18:55:44.025Z,5.32
2022-11-29T19:10:45.515Z,5.46
2022-11-29T19:25:47.345Z,5.41
2022-11-29T19:40:48.818Z,5.06
2022-11-29T19:55:50.348Z,5.09
2022-11-29T20:10:52.131Z,4.69
2022-11-29T20:25:55.350Z,4.78
2022-11-29T20:41:03.059Z,4.87
2022-11-29T20:56:05.559Z,4.63
2022-11-29T21:11:10.265Z,4.64
2022-11-29T21:26:11.841Z,4.96
2022-11-29T21:41:13.424Z,4.81
2022-11-29T21:56:15.381Z,4.90
2022-11-29T22:16:09.616Z,5.23
2022-11-29T22:31:12.474Z,5.04
2022-11-29T22:46:18.408Z,5.62
2022-11-29T23:01:23.866Z,5.48
2022-11-29T23:16:26.736Z,5.30
2022-11-29T23:31:28.305Z,5.35
2022-11-29T23:46:29.952Z,5.39
